createdAt,value
2022-11-29T00:00:59.869Z,18.60
2022-11-29T00:03:27.992Z,18.59
2022-11-29T00:05:56.006Z,18.60
2022-11-29T00:08:24.014Z,18.58
2022-11-29T00:10:53.429Z,18.60
2022-11-29T00:13:21.358Z,18.60
2022-11-29T00:15:49.303Z,18.59
2022-11-29T00:18:17.211Z,18.62
2022-11-29T00:20:45.127Z,18.62
2022-11-29T00:23:13.005Z,18.59
2022-11-29T00:25:40.909Z,18.58
2022-11-29T00:28:10.206Z,18.55
2022-11-29T00:30:38.114Z,18.56
2022-11-29T00:33:06.070Z,18.56
2022-11-29T00:35:33.943Z,18.55
2022-11-29T00:38:01.832Z,18.55
2022-11-29T00:40:29.702Z,18.56
2022-11-29T00:42:57.556Z,18.57
2022-11-29T00:45:26.806Z,18.57
2022-11-29T00:47:54.711Z,18.58
2022-11-29T00:50:22.600Z,18.57
2022-11-29T00:52:50.654Z,18.56
2022-11-29T00:55:18.691Z,18.58
2022-11-29T00:57:46.610Z,18.57
2022-11-29T01:00:15.523Z,18.60
2022-11-29T01:02:44.840Z,18.58
2022-11-29T01:05:12.732Z,18.58
2022-11-29T01:07:40.696Z,18.58
2022-11-29T01:10:09.498Z,18.60
2022-11-29T01:12:37.434Z,18.63
2022-11-29T01:15:05.849Z,18.63
2022-11-29T01:17:33.762Z,18.64
2022-11-29T01:20:03.373Z,18.64
2022-11-29T01:22:31.293Z,18.64
2022-11-29T01:24:59.170Z,18.64
2022-11-29T01:27:27.139Z,18.64
2022-11-29T01:29:55.065Z,18.65
2022-11-29T01:32:22.999Z,18.64
2022-11-29T01:34:50.900Z,18.65
2022-11-29T01:37:20.217Z,18.63
2022-11-29T01:39:48.120Z,18.63
2022-11-29T01:42:16.186Z,18.61
2022-11-29T01:45:05.571Z,18.60
2022-11-29T01:47:33.488Z,18.59
2022-11-29T01:50:01.379Z,18.60
2022-11-29T01:52:32.149Z,18.62
2022-11-29T01:55:01.602Z,18.62
2022-11-29T01:57:29.640Z,18.61
2022-11-29T01:59:59.306Z,18.64
2022-11-29T02:02:29.805Z,18.62
2022-11-29T02:04:57.731Z,18.61
2022-11-29T02:07:25.673Z,18.60
2022-11-29T02:09:55.066Z,18.62
2022-11-29T02:12:25.667Z,18.64
2022-11-29T02:15:02.236Z,18.63
2022-11-29T02:17:32.085Z,18.60
2022-11-29T02:20:19.319Z,18.57
2022-11-29T02:22:48.926Z,18.58
2022-11-29T02:25:29.127Z,18.57
2022-11-29T02:28:46.161Z,18.55
2022-11-29T02:31:44.667Z,18.55
2022-11-29T02:34:29.248Z,18.53
2022-11-29T02:37:18.554Z,18.51
2022-11-29T02:40:10.940Z,18.51
2022-11-29T02:42:56.426Z,18.51
2022-11-29T02:45:34.749Z,18.50
2022-11-29T02:48:10.519Z,18.50
2022-11-29T02:50:42.298Z,18.50
2022-11-29T02:53:13.989Z,18.49
2022-11-29T02:55:44.950Z,18.47
2022-11-29T02:58:18.312Z,18.48
2022-11-29T03:00:50.856Z,18.48
2022-11-29T03:03:21.676Z,18.47
2022-11-29T03:05:52.123Z,18.48
2022-11-29T03:08:24.537Z,18.48
2022-11-29T03:10:57.607Z,18.46
2022-11-29T03:13:33.069Z,18.46
2022-11-29T03:16:04.498Z,18.46
2022-11-29T03:18:36.263Z,18.46
2022-11-29T03:21:14.570Z,18.44
2022-11-29T03:23:44.943Z,18.43
2022-11-29T03:26:15.068Z,18.44
2022-11-29T03:28:44.578Z,18.42
2022-11-29T03:31:14.972Z,18.43
2022-11-29T03:33:47.445Z,18.44
2022-11-29T03:36:19.935Z,18.45
2022-11-29T03:38:48.152Z,18.45
2022-11-29T03:41:24.321Z,18.44
2022-11-29T03:43:54.444Z,18.46
2022-11-29T03:46:26.707Z,18.45
2022-11-29T03:48:55.754Z,18.45
2022-11-29T03:51:27.816Z,18.44
2022-11-29T03:53:56.573Z,18.45
2022-11-29T03:56:29.513Z,18.46
2022-11-29T03:59:04.093Z,18.46
2022-11-29T04:02:10.494Z,18.45
2022-11-29T04:05:02.560Z,18.46
2022-11-29T04:07:45.857Z,18.44
2022-11-29T04:10:21.068Z,18.44
2022-11-29T04:13:17.451Z,18.46
2022-11-29T04:16:16.033Z,18.47
2022-11-29T04:19:07.218Z,18.47
2022-11-29T04:21:43.438Z,18.45
2022-11-29T04:24:40.232Z,18.46
2022-11-29T04:27:29.185Z,18.44
2022-11-29T04:30:05.348Z,18.46
2022-11-29T04:33:01.821Z,18.46
2022-11-29T04:35:40.411Z,18.46
2022-11-29T04:38:27.499Z,18.46
2022-11-29T04:41:19.850Z,18.47
2022-11-29T04:44:04.612Z,18.45
2022-11-29T04:46:45.923Z,18.42
2022-11-29T04:49:24.414Z,18.41
2022-11-29T04:52:03.160Z,18.40
2022-11-29T04:54:33.747Z,18.40
2022-11-29T04:57:07.250Z,18.41
2022-11-29T04:59:39.805Z,18.43
2022-11-29T05:02:10.551Z,18.43
2022-11-29T05:04:42.345Z,18.44
2022-11-29T05:07:13.149Z,18.43
2022-11-29T05:09:48.866Z,18.43
2022-11-29T05:12:20.628Z,18.41
2022-11-29T05:14:56.394Z,18.41
2022-11-29T05:17:32.772Z,18.41
2022-11-29T05:20:05.478Z,18.41
2022-11-29T05:22:35.949Z,18.42
2022-11-29T05:25:13.907Z,18.41
2022-11-29T05:27:46.561Z,18.40
2022-11-29T05:30:15.359Z,18.39
2022-11-29T05:32:49.730Z,18.39
2022-11-29T05:35:35.698Z,18.43
2022-11-29T05:38:08.319Z,18.45
2022-11-29T05:40:50.702Z,18.45
2022-11-29T05:43:35.688Z,18.48
2022-11-29T05:46:05.604Z,18.49
2022-11-29T05:48:35.532Z,18.51
2022-11-29T05:51:10.429Z,18.52
2022-11-29T05:53:42.543Z,18.51
2022-11-29T05:56:14.009Z,18.49
2022-11-29T05:58:47.922Z,18.48
2022-11-29T06:01:19.555Z,18.48
2022-11-29T06:03:54.376Z,18.48
2022-11-29T06:06:27.311Z,18.49
2022-11-29T06:08:58.050Z,18.49
2022-11-29T06:11:27.366Z,18.48
2022-11-29T06:14:06.010Z,18.48
2022-11-29T06:17:05.920Z,18.50
2022-11-29T06:19:45.476Z,18.51
2022-11-29T06:22:22.582Z,18.50
2022-11-29T06:24:58.352Z,18.51
2022-11-29T06:27:36.419Z,18.51
2022-11-29T06:30:09.281Z,18.48
2022-11-29T06:32:41.245Z,18.48
2022-11-29T06:35:11.132Z,18.49
2022-11-29T06:37:39.735Z,18.51
2022-11-29T06:40:10.215Z,18.50
2022-11-29T06:42:38.071Z,18.50
2022-11-29T06:45:09.014Z,18.49
2022-11-29T06:47:39.086Z,18.48
2022-11-29T06:50:16.732Z,18.47
2022-11-29T06:52:46.272Z,18.46
2022-11-29T06:55:16.552Z,18.46
2022-11-29T06:58:00.204Z,18.45
2022-11-29T07:00:32.799Z,18.46
2022-11-29T07:03:14.141Z,18.45
2022-11-29T07:05:42.519Z,18.45
2022-11-29T07:08:13.401Z,18.44
2022-11-29T07:10:41.912Z,18.45
2022-11-29T07:13:12.156Z,18.46
2022-11-29T07:15:41.951Z,18.46
2022-11-29T07:18:18.664Z,18.46
2022-11-29T07:20:53.300Z,18.48
2022-11-29T07:23:24.814Z,18.48
2022-11-29T07:25:57.485Z,18.51
2022-11-29T07:28:33.569Z,18.55
2022-11-29T07:31:06.422Z,18.57
2022-11-29T07:33:40.310Z,18.57
2022-11-29T07:36:12.077Z,18.56
2022-11-29T07:38:48.267Z,18.56
2022-11-29T07:41:18.642Z,18.57
2022-11-29T07:43:49.010Z,18.56
2022-11-29T07:46:18.350Z,18.55
2022-11-29T07:48:46.408Z,18.55
2022-11-29T07:51:14.355Z,18.57
2022-11-29T07:53:43.524Z,18.55
2022-11-29T07:56:12.312Z,18.55
2022-11-29T07:58:40.339Z,18.53
2022-11-29T08:01:11.467Z,18.54
2022-11-29T08:03:42.053Z,18.53
2022-11-29T08:06:12.767Z,18.53
2022-11-29T08:08:43.891Z,18.52
2022-11-29T08:11:12.352Z,18.51
2022-11-29T08:13:40.254Z,18.52
2022-11-29T08:16:08.664Z,18.51
2022-11-29T08:18:37.402Z,18.51
2022-11-29T08:21:08.470Z,18.51
2022-11-29T08:23:36.412Z,18.50
2022-11-29T08:26:04.398Z,18.51
2022-11-29T08:28:32.351Z,18.51
2022-11-29T08:31:03.390Z,18.52
2022-11-29T08:33:31.429Z,18.51
2022-11-29T08:36:08.222Z,18.50
2022-11-29T08:38:36.129Z,18.50
2022-11-29T08:41:04.027Z,18.50
2022-11-29T08:43:31.998Z,18.50
2022-11-29T08:45:59.979Z,18.48
2022-11-29T08:48:27.938Z,18.47
2022-11-29T08:50:56.283Z,18.45
2022-11-29T08:53:46.016Z,18.43
2022-11-29T08:56:53.467Z,18.43
2022-11-29T08:59:02.461Z,18.42
2022-11-29T09:01:30.373Z,18.42
2022-11-29T09:04:02.838Z,18.43
2022-11-29T09:06:31.551Z,18.43
2022-11-29T09:09:01.102Z,18.42
2022-11-29T09:11:29.460Z,18.42
2022-11-29T09:13:58.272Z,18.45
2022-11-29T09:16:27.029Z,18.44
2022-11-29T09:18:57.927Z,18.45
2022-11-29T09:21:26.565Z,18.46
2022-11-29T09:23:58.684Z,18.45
2022-11-29T09:26:29.286Z,18.47
2022-11-29T09:28:57.960Z,18.47
2022-11-29T09:31:27.271Z,18.48
2022-11-29T09:33:55.435Z,18.49
2022-11-29T09:36:28.097Z,18.51
2022-11-29T09:38:56.601Z,18.52
2022-11-29T09:41:36.417Z,18.51
2022-11-29T09:44:08.530Z,18.51
2022-11-29T09:46:39.922Z,18.53
2022-11-29T09:49:25.558Z,18.53
2022-11-29T09:51:55.881Z,18.54
2022-11-29T09:54:28.456Z,18.55
2022-11-29T09:56:57.721Z,18.55
2022-11-29T09:59:28.844Z,18.56
2022-11-29T10:01:59.543Z,18.56
2022-11-29T10:04:30.089Z,18.56
2022-11-29T10:06:59.683Z,18.55
2022-11-29T10:09:33.494Z,18.55
2022-11-29T10:12:09.309Z,18.56
2022-11-29T10:14:40.101Z,18.55
2022-11-29T10:17:13.757Z,18.56
2022-11-29T10:19:43.032Z,18.55
2022-11-29T10:22:16.465Z,18.54
2022-11-29T10:24:44.816Z,18.53
2022-11-29T10:27:18.365Z,18.53
2022-11-29T10:29:49.044Z,18.52
2022-11-29T10:32:16.907Z,18.50
2022-11-29T10:34:45.069Z,18.50
2022-11-29T10:37:14.838Z,18.49
2022-11-29T10:39:44.868Z,18.50
2022-11-29T10:42:36.584Z,18.50
2022-11-29T10:45:04.918Z,18.51
2022-11-29T10:47:32.871Z,18.50
2022-11-29T10:50:00.808Z,18.51
2022-11-29T10:52:28.734Z,18.50
2022-11-29T10:54:58.332Z,18.51
2022-11-29T10:57:27.581Z,18.51
2022-11-29T11:00:04.079Z,18.53
2022-11-29T11:02:32.023Z,18.53
2022-11-29T11:04:59.997Z,18.54
2022-11-29T11:07:30.147Z,18.54
2022-11-29T11:09:58.207Z,18.54
2022-11-29T11:12:29.362Z,18.55
2022-11-29T11:15:16.552Z,18.56
2022-11-29T11:17:56.546Z,18.57
2022-11-29T11:20:28.612Z,18.57
2022-11-29T11:22:58.687Z,18.58
2022-11-29T11:25:28.546Z,18.58
2022-11-29T11:27:57.889Z,18.58
2022-11-29T11:30:27.506Z,18.59
2022-11-29T11:33:18.169Z,18.60
2022-11-29T11:35:46.094Z,18.63
2022-11-29T11:38:16.563Z,18.60
2022-11-29T11:40:44.576Z,18.60
2022-11-29T11:43:19.302Z,18.60
2022-11-29T11:45:52.921Z,18.60
2022-11-29T11:48:23.720Z,18.59
2022-11-29T11:50:52.451Z,18.57
2022-11-29T11:53:22.567Z,18.58
2022-11-29T11:55:56.805Z,18.59
2022-11-29T11:58:26.251Z,18.58
2022-11-29T12:01:03.447Z,18.58
2022-11-29T12:03:36.705Z,18.56
2022-11-29T12:06:28.662Z,18.56
2022-11-29T12:08:58.680Z,18.55
2022-11-29T12:11:26.557Z,18.54
2022-11-29T12:13:57.629Z,18.55
2022-11-29T12:16:28.606Z,18.59
2022-11-29T12:18:59.866Z,18.64
2022-11-29T12:21:29.121Z,18.64
2022-11-29T12:23:58.835Z,18.66
2022-11-29T12:26:55.938Z,18.67
2022-11-29T12:29:18.621Z,18.64
2022-11-29T12:31:55.122Z,18.64
2022-11-29T12:34:30.646Z,18.63
2022-11-29T12:37:00.471Z,18.63
2022-11-29T12:39:36.501Z,18.62
2022-11-29T12:42:07.094Z,18.62
2022-11-29T12:44:47.248Z,18.62
2022-11-29T12:47:39.093Z,18.61
2022-11-29T12:50:18.010Z,18.62
2022-11-29T12:52:52.307Z,18.61
2022-11-29T12:55:23.292Z,18.60
2022-11-29T12:57:59.196Z,18.62
2022-11-29T13:00:30.077Z,18.59
2022-11-29T13:03:03.297Z,18.61
2022-11-29T13:05:42.216Z,18.59
2022-11-29T13:08:21.334Z,18.59
2022-11-29T13:11:01.345Z,18.59
2022-11-29T13:13:36.318Z,18.59
2022-11-29T13:16:07.777Z,18.57
2022-11-29T13:18:37.173Z,18.57
2022-11-29T13:21:07.414Z,18.56
2022-11-29T13:24:06.864Z,18.56
2022-11-29T13:26:25.933Z,18.56
2022-11-29T13:28:53.858Z,18.56
2022-11-29T13:31:24.929Z,18.57
2022-11-29T13:33:56.674Z,18.55
2022-11-29T13:36:29.690Z,18.56
2022-11-29T13:39:01.080Z,18.55
2022-11-29T13:41:30.544Z,18.54
2022-11-29T13:44:00.167Z,18.53
2022-11-29T13:46:33.008Z,18.52
2022-11-29T13:49:00.944Z,18.52
2022-11-29T13:51:33.218Z,18.52
2022-11-29T13:54:02.377Z,18.51
2022-11-29T13:56:36.069Z,18.51
2022-11-29T13:59:07.389Z,18.51
2022-11-29T14:01:46.522Z,18.53
2022-11-29T14:04:28.214Z,18.56
2022-11-29T14:07:06.794Z,18.56
2022-11-29T14:09:41.166Z,18.56
2022-11-29T14:12:20.897Z,18.54
2022-11-29T14:14:50.750Z,18.54
2022-11-29T14:17:37.647Z,18.53
2022-11-29T14:20:50.834Z,18.52
2022-11-29T14:23:31.387Z,18.51
2022-11-29T14:26:29.932Z,18.51
2022-11-29T14:28:58.676Z,18.48
2022-11-29T14:31:57.354Z,18.48
2022-11-29T14:34:44.825Z,18.48
2022-11-29T14:37:20.955Z,18.47
2022-11-29T14:39:49.411Z,18.47
2022-11-29T14:42:18.749Z,18.47
2022-11-29T14:44:49.563Z,18.48
2022-11-29T14:47:24.641Z,18.47
2022-11-29T14:49:54.818Z,18.46
2022-11-29T14:52:29.240Z,18.47
2022-11-29T14:54:59.968Z,18.48
2022-11-29T14:57:53.209Z,18.49
2022-11-29T15:00:21.506Z,18.50
2022-11-29T15:02:50.800Z,18.49
2022-11-29T15:05:21.306Z,18.51
2022-11-29T15:07:54.163Z,18.50
2022-11-29T15:10:23.795Z,18.52
2022-11-29T15:12:51.858Z,18.52
2022-11-29T15:15:31.470Z,18.53
2022-11-29T15:18:01.643Z,18.53
2022-11-29T15:20:37.882Z,18.53
2022-11-29T15:23:06.319Z,18.54
2022-11-29T15:25:34.388Z,18.54
2022-11-29T15:28:02.906Z,18.55
2022-11-29T15:30:33.789Z,18.55
2022-11-29T15:33:02.332Z,18.53
2022-11-29T15:35:30.410Z,18.54
2022-11-29T15:37:59.818Z,18.55
2022-11-29T15:40:34.456Z,18.56
2022-11-29T15:43:05.121Z,18.56
2022-11-29T15:45:34.527Z,18.56
2022-11-29T15:48:17.306Z,18.56
2022-11-29T15:50:48.292Z,18.55
2022-11-29T15:53:25.502Z,18.55
2022-11-29T15:55:54.330Z,18.54
2022-11-29T15:58:22.215Z,18.54
2022-11-29T16:00:50.568Z,18.54
2022-11-29T16:03:25.898Z,18.55
2022-11-29T16:05:58.656Z,18.54
2022-11-29T16:08:28.547Z,18.55
2022-11-29T16:10:56.407Z,18.54
2022-11-29T16:13:34.200Z,18.55
2022-11-29T16:16:14.310Z,18.55
2022-11-29T16:18:42.984Z,18.55
2022-11-29T16:21:23.593Z,18.55
2022-11-29T16:23:53.154Z,18.55
2022-11-29T16:26:22.416Z,18.54
2022-11-29T16:28:51.415Z,18.54
2022-11-29T16:31:23.576Z,18.55
2022-11-29T16:33:52.422Z,18.54
2022-11-29T16:36:21.404Z,18.56
2022-11-29T16:38:50.293Z,18.56
2022-11-29T16:41:24.838Z,18.56
2022-11-29T16:43:55.225Z,18.54
2022-11-29T16:46:33.881Z,18.54
2022-11-29T16:49:02.748Z,18.53
2022-11-29T16:51:47.874Z,18.54
2022-11-29T16:54:25.527Z,18.55
2022-11-29T16:56:55.511Z,18.54
2022-11-29T16:59:27.371Z,18.53
2022-11-29T17:01:56.350Z,18.53
2022-11-29T17:04:25.009Z,18.52
2022-11-29T17:06:53.603Z,18.51
2022-11-29T17:09:24.111Z,18.51
2022-11-29T17:11:51.972Z,18.51
2022-11-29T17:14:21.272Z,18.52
2022-11-29T17:16:50.481Z,18.52
2022-11-29T17:19:19.393Z,18.54
2022-11-29T17:21:47.574Z,18.54
2022-11-29T17:24:17.292Z,18.56
2022-11-29T17:26:48.045Z,18.56
2022-11-29T17:29:16.342Z,18.61
2022-11-29T17:31:45.842Z,18.65
2022-11-29T17:34:14.003Z,18.68
2022-11-29T17:36:42.002Z,18.68
2022-11-29T17:39:09.869Z,18.70
2022-11-29T17:41:37.785Z,18.72
2022-11-29T17:44:05.863Z,18.73
2022-11-29T17:46:34.476Z,18.74
2022-11-29T17:49:04.723Z,18.77
2022-11-29T17:54:20.961Z,18.82
2022-11-29T17:56:49.245Z,18.84
2022-11-29T17:59:17.138Z,18.84
2022-11-29T18:01:46.975Z,18.84
2022-11-29T18:04:16.488Z,18.85
2022-11-29T18:06:49.435Z,18.86
2022-11-29T18:09:17.579Z,18.83
2022-11-29T18:11:48.528Z,18.79
2022-11-29T18:14:18.289Z,18.76
2022-11-29T18:16:46.422Z,18.73
2022-11-29T18:19:19.338Z,18.72
2022-11-29T18:21:47.286Z,18.70
2022-11-29T18:24:15.285Z,18.67
2022-11-29T18:26:43.245Z,18.65
2022-11-29T18:29:12.113Z,18.63
2022-11-29T18:31:40.975Z,18.63
2022-11-29T18:34:10.270Z,18.60
2022-11-29T18:36:40.379Z,18.60
2022-11-29T18:39:09.649Z,18.59
2022-11-29T18:41:37.741Z,18.59
2022-11-29T18:44:07.232Z,18.57
2022-11-29T18:46:36.853Z,18.57
2022-11-29T18:49:05.600Z,18.56
2022-11-29T18:51:33.556Z,18.56
2022-11-29T18:54:02.964Z,18.56
2022-11-29T18:56:31.960Z,18.54
2022-11-29T18:59:00.595Z,18.53
2022-11-29T19:01:29.290Z,18.53
2022-11-29T19:03:58.761Z,18.53
2022-11-29T19:06:28.177Z,18.53
2022-11-29T19:08:58.353Z,18.53
2022-11-29T19:11:28.584Z,18.54
2022-11-29T19:13:57.626Z,18.53
2022-11-29T19:16:25.953Z,18.54
2022-11-29T19:18:54.621Z,18.53
2022-11-29T19:21:23.303Z,18.53
2022-11-29T19:23:54.336Z,18.54
2022-11-29T19:26:22.479Z,18.54
2022-11-29T19:28:51.764Z,18.55
2022-11-29T19:31:20.585Z,18.57
2022-11-29T19:33:48.502Z,18.58
2022-11-29T19:36:17.354Z,18.60
2022-11-29T19:38:48.851Z,18.60
2022-11-29T19:41:22.014Z,18.62
2022-11-29T19:43:51.334Z,18.62
2022-11-29T19:46:20.034Z,18.62
2022-11-29T19:48:48.123Z,18.63
2022-11-29T19:51:17.485Z,18.65
2022-11-29T19:53:45.575Z,18.65
2022-11-29T19:56:14.428Z,18.64
2022-11-29T19:58:42.490Z,18.66
2022-11-29T20:01:12.396Z,18.66
2022-11-29T20:03:40.402Z,18.66
2022-11-29T20:06:09.192Z,18.67
2022-11-29T20:08:37.408Z,18.66
2022-11-29T20:11:08.584Z,18.66
2022-11-29T20:13:36.658Z,18.65
2022-11-29T20:16:04.720Z,18.64
2022-11-29T20:18:34.346Z,18.65
2022-11-29T20:21:05.119Z,18.66
2022-11-29T20:23:33.039Z,18.65
2022-11-29T20:26:00.993Z,18.65
2022-11-29T20:28:28.956Z,18.65
2022-11-29T20:30:56.960Z,18.63
2022-11-29T20:33:25.825Z,18.65
2022-11-29T20:35:57.400Z,18.65
2022-11-29T20:38:29.480Z,18.64
2022-11-29T20:41:02.727Z,18.63
2022-11-29T20:43:36.328Z,18.63
2022-11-29T20:46:04.560Z,18.61
2022-11-29T20:48:32.815Z,18.59
2022-11-29T20:51:02.726Z,18.60
2022-11-29T20:53:35.313Z,18.59
2022-11-29T20:56:03.534Z,18.58
2022-11-29T20:58:31.448Z,18.58
2022-11-29T21:00:59.559Z,18.58
2022-11-29T21:03:28.026Z,18.57
2022-11-29T21:05:56.124Z,18.57
2022-11-29T21:08:26.575Z,18.56
2022-11-29T21:10:54.504Z,18.55
2022-11-29T21:13:23.269Z,18.55
2022-11-29T21:15:51.729Z,18.54
2022-11-29T21:18:22.905Z,18.53
2022-11-29T21:21:02.986Z,18.54
2022-11-29T21:23:36.933Z,18.53
2022-11-29T21:26:08.446Z,18.53
2022-11-29T21:28:38.403Z,18.52
2022-11-29T21:31:07.056Z,18.51
2022-11-29T21:33:35.471Z,18.51
2022-11-29T21:36:05.617Z,18.52
2022-11-29T21:38:34.908Z,18.51
2022-11-29T21:41:02.762Z,18.52
2022-11-29T21:44:04.427Z,18.51
2022-11-29T21:46:18.578Z,18.50
2022-11-29T21:48:46.530Z,18.51
2022-11-29T21:51:14.453Z,18.51
2022-11-29T21:53:43.714Z,18.51
2022-11-29T21:56:11.896Z,18.52
2022-11-29T21:58:39.888Z,18.55
2022-11-29T22:01:09.384Z,18.55
2022-11-29T22:03:37.373Z,18.56
2022-11-29T22:06:06.054Z,18.57
2022-11-29T22:08:38.752Z,18.62
2022-11-29T22:11:08.746Z,18.67
2022-11-29T22:13:36.853Z,18.71
2022-11-29T22:16:06.243Z,18.75
2022-11-29T22:18:34.152Z,18.75
2022-11-29T22:21:06.151Z,18.72
2022-11-29T22:23:34.216Z,18.69
2022-11-29T22:26:07.388Z,18.67
2022-11-29T22:28:35.814Z,18.67
2022-11-29T22:31:05.220Z,18.65
2022-11-29T22:33:33.197Z,18.64
2022-11-29T22:36:05.531Z,18.64
2022-11-29T22:38:33.491Z,18.62
2022-11-29T22:41:02.216Z,18.62
2022-11-29T22:43:31.985Z,18.61
2022-11-29T22:46:07.199Z,18.61
2022-11-29T22:48:38.710Z,18.60
2022-11-29T22:51:07.881Z,18.63
2022-11-29T22:53:35.913Z,18.62
2022-11-29T22:56:04.696Z,18.60
2022-11-29T22:58:33.996Z,18.59
2022-11-29T23:01:05.827Z,18.59
2022-11-29T23:03:35.218Z,18.58
2022-11-29T23:06:07.058Z,18.57
2022-11-29T23:08:35.211Z,18.57
2022-11-29T23:11:04.277Z,18.55
2022-11-29T23:13:34.025Z,18.56
2022-11-29T23:16:01.997Z,18.55
2022-11-29T23:18:29.982Z,18.56
2022-11-29T23:21:02.112Z,18.55
2022-11-29T23:23:30.018Z,18.55
2022-11-29T23:25:57.941Z,18.54
2022-11-29T23:28:25.873Z,18.54
2022-11-29T23:30:55.165Z,18.54
2022-11-29T23:33:23.362Z,18.55
2022-11-29T23:35:51.256Z,18.54
2022-11-29T23:38:19.313Z,18.54
2022-11-29T23:40:47.216Z,18.54
2022-11-29T23:43:15.132Z,18.57
2022-11-29T23:45:43.358Z,18.57
2022-11-29T23:48:12.685Z,18.57
2022-11-29T23:50:40.533Z,18.56
2022-11-29T23:53:08.454Z,18.56
2022-11-29T23:55:36.324Z,18.55
2022-11-29T23:58:04.237Z,18.54
